createdAt,value
2022-12-22T00:00:41.094Z,96.89
2022-12-22T00:11:21.206Z,96.92
2022-12-22T00:22:01.198Z,97.46
2022-12-22T00:32:41.382Z,97.63
2022-12-22T00:43:21.459Z,97.55
2022-12-22T00:54:01.450Z,97.31
2022-12-22T01:04:41.704Z,97.81
2022-12-22T01:15:21.796Z,97.98
2022-12-22T01:26:02.104Z,98.13
2022-12-22T01:36:42.189Z,98.26
2022-12-22T01:47:41.230Z,98.01
2022-12-22T01:58:21.317Z,98.23
2022-12-22T02:09:03.360Z,98.45
2022-12-22T02:19:58.748Z,98.93
2022-12-22T02:30:38.837Z,99.14
2022-12-22T02:41:38.707Z,99.10
2022-12-22T02:52:24.296Z,98.71
2022-12-22T03:03:04.509Z,98.45
2022-12-22T03:13:44.890Z,98.29
2022-12-22T03:24:25.325Z,98.47
2022-12-22T03:34:46.703Z,98.33
2022-12-22T03:45:27.694Z,98.56
2022-12-22T03:55:49.068Z,99.00
2022-12-22T04:06:10.415Z,98.61
2022-12-22T04:16:33.650Z,98.74
2022-12-22T04:26:55.049Z,99.01
2022-12-22T04:37:17.654Z,98.95
2022-12-22T04:47:39.402Z,99.13
2022-12-22T04:58:00.789Z,99.28
2022-12-22T05:08:22.132Z,99.10
2022-12-22T05:18:44.175Z,98.88
2022-12-22T05:29:05.567Z,98.87
2022-12-22T05:39:26.916Z,99.10
2022-12-22T05:49:48.257Z,98.60
2022-12-22T06:00:12.501Z,98.91
2022-12-22T06:10:33.902Z,99.12
2022-12-22T06:20:55.275Z,98.96
2022-12-22T06:31:16.734Z,99.35
2022-12-22T06:41:56.703Z,99.19
2022-12-22T06:52:18.081Z,99.46
2022-12-22T07:02:39.579Z,99.20
2022-12-22T07:13:19.014Z,98.86
2022-12-22T07:23:41.221Z,98.57
2022-12-22T07:34:02.579Z,98.53
2022-12-22T07:44:24.333Z,98.33
2022-12-22T07:54:45.684Z,98.21
2022-12-22T08:05:07.907Z,98.43
2022-12-22T08:15:29.389Z,97.95
2022-12-22T08:25:55.541Z,98.42
2022-12-22T08:36:17.110Z,98.39
2022-12-22T08:46:38.537Z,98.48
2022-12-22T08:56:59.941Z,98.26
2022-12-22T09:07:21.329Z,98.18
2022-12-22T09:17:43.610Z,97.91
2022-12-22T09:28:07.379Z,98.10
2022-12-22T09:38:28.843Z,97.64
2022-12-22T09:48:50.572Z,97.28
2022-12-22T09:59:13.368Z,95.82
2022-12-22T10:09:52.119Z,94.25
2022-12-22T10:20:26.606Z,94.06
2022-12-22T10:30:48.028Z,93.75
2022-12-22T10:41:18.077Z,92.54
2022-12-22T10:51:40.467Z,92.87
2022-12-22T11:02:20.763Z,93.24
2022-12-22T11:13:02.420Z,93.33
2022-12-22T11:23:26.919Z,93.09
2022-12-22T11:33:51.383Z,92.04
2022-12-22T11:44:31.253Z,90.97
2022-12-22T11:54:55.692Z,90.19
2022-12-22T12:05:17.050Z,88.42
2022-12-22T12:15:40.981Z,88.55
2022-12-22T12:26:11.638Z,86.48
2022-12-22T12:36:51.835Z,86.22
2022-12-22T12:47:27.045Z,85.73
2022-12-22T12:57:49.171Z,86.15
2022-12-22T13:08:19.719Z,85.00
2022-12-22T13:18:50.001Z,85.69
2022-12-22T13:29:21.702Z,85.14
2022-12-22T13:39:43.461Z,85.92
2022-12-22T13:50:09.684Z,86.23
2022-12-22T14:00:31.598Z,86.12
2022-12-22T14:10:54.296Z,86.28
2022-12-22T14:21:15.682Z,86.66
2022-12-22T14:31:50.521Z,86.92
2022-12-22T14:42:13.245Z,87.06
2022-12-22T14:52:43.840Z,87.43
2022-12-22T15:03:25.635Z,88.09
2022-12-22T15:13:48.115Z,88.22
2022-12-22T15:24:15.324Z,88.09
2022-12-22T15:34:36.815Z,88.63
2022-12-22T15:44:58.206Z,88.76
2022-12-22T15:55:20.051Z,88.63
2022-12-22T16:05:41.754Z,88.70
2022-12-22T16:16:03.318Z,88.39
2022-12-22T16:26:24.731Z,88.45
2022-12-22T16:36:46.139Z,88.08
2022-12-22T16:47:15.428Z,87.78
2022-12-22T16:57:36.783Z,87.34
2022-12-22T17:07:58.485Z,87.16
2022-12-22T17:18:21.474Z,86.72
2022-12-22T17:28:43.479Z,86.93
2022-12-22T17:39:05.055Z,86.65
2022-12-22T17:49:26.521Z,86.92
2022-12-22T17:59:47.885Z,87.08
2022-12-22T18:10:29.580Z,87.12
2022-12-22T18:21:06.058Z,87.61
2022-12-22T18:31:29.225Z,88.27
2022-12-22T18:41:54.160Z,88.13
2022-12-22T18:52:17.441Z,87.92
2022-12-22T19:02:39.052Z,88.32
2022-12-22T19:13:02.562Z,88.10
2022-12-22T19:23:25.361Z,88.48
2022-12-22T19:33:46.769Z,88.13
2022-12-22T19:44:20.317Z,88.85
2022-12-22T19:54:41.744Z,88.93
2022-12-22T20:05:03.370Z,88.92
2022-12-22T20:15:24.785Z,89.47
2022-12-22T20:25:48.283Z,89.35
2022-12-22T20:36:16.627Z,89.92
2022-12-22T20:46:39.223Z,90.49
2022-12-22T20:57:00.708Z,91.85
2022-12-22T21:07:22.087Z,91.99
2022-12-22T21:17:46.246Z,92.10
2022-12-22T21:28:08.829Z,92.08
2022-12-22T21:38:32.087Z,92.77
2022-12-22T21:48:53.497Z,92.71
2022-12-22T21:59:15.303Z,92.44
2022-12-22T22:09:36.688Z,93.06
2022-12-22T22:19:58.153Z,93.03
2022-12-22T22:30:21.047Z,93.25
2022-12-22T22:40:43.237Z,93.76
2022-12-22T22:51:04.795Z,93.74
2022-12-22T23:01:26.204Z,93.95
2022-12-22T23:11:47.560Z,93.81
2022-12-22T23:22:08.912Z,93.64
2022-12-22T23:32:30.258Z,94.44
2022-12-22T23:42:56.583Z,95.23
2022-12-22T23:53:18.488Z,94.77
